createdAt,value
2018-07-14T00:01:48.438Z,94.16
2018-07-14T00:02:48.364Z,93.87
2018-07-14T00:04:41.130Z,93.77
2018-07-14T00:05:41.050Z,93.29
2018-07-14T00:07:34.035Z,94.73
2018-07-14T00:08:33.950Z,94.45
2018-07-14T00:10:26.716Z,93.68
2018-07-14T00:11:26.637Z,93.77
2018-07-14T00:13:19.518Z,93.96
2018-07-14T00:14:19.433Z,94.54
2018-07-14T00:16:12.301Z,95.31
2018-07-14T00:17:12.224Z,94.54
2018-07-14T00:19:05.000Z,95.79
2018-07-14T00:20:04.916Z,94.54
2018-07-14T00:21:57.736Z,94.93
2018-07-14T00:22:57.659Z,95.98
2018-07-14T00:24:50.428Z,95.75
2018-07-14T00:25:50.338Z,96.89
2018-07-14T00:27:43.582Z,97.28
2018-07-14T00:28:43.494Z,96.32
2018-07-14T00:30:36.271Z,96.32
2018-07-14T00:31:36.198Z,95.84
2018-07-14T00:33:28.961Z,96.22
2018-07-14T00:34:28.878Z,97.42
2018-07-14T00:36:21.637Z,96.17
2018-07-14T00:37:21.569Z,96.08
2018-07-14T00:39:14.441Z,94.26
2018-07-14T00:40:14.351Z,97.24
2018-07-14T00:42:07.112Z,97.33
2018-07-14T00:43:07.036Z,98.00
2018-07-14T00:44:59.949Z,97.19
2018-07-14T00:45:59.910Z,97.19
2018-07-14T00:47:52.745Z,97.38
2018-07-14T00:48:52.669Z,98.14
2018-07-14T00:50:45.422Z,97.33
2018-07-14T00:51:45.349Z,97.38
2018-07-14T00:53:38.120Z,99.58
2018-07-14T00:54:38.038Z,98.43
2018-07-14T00:56:30.794Z,98.43
2018-07-14T00:57:30.722Z,98.53
2018-07-14T00:59:23.481Z,99.92
2018-07-14T01:00:23.408Z,99.99
2018-07-14T01:02:16.289Z,99.99
2018-07-14T01:03:16.218Z,99.92
2018-07-14T01:05:09.294Z,99.99
2018-07-14T01:06:09.211Z,99.99
2018-07-14T01:08:01.972Z,99.99
2018-07-14T01:09:01.890Z,99.99
2018-07-14T01:10:54.681Z,99.99
2018-07-14T01:11:54.610Z,99.99
2018-07-14T01:13:47.482Z,99.99
2018-07-14T01:14:47.400Z,99.99
2018-07-14T01:16:40.162Z,99.99
2018-07-14T01:17:40.113Z,99.99
2018-07-14T01:19:32.848Z,99.99
2018-07-14T01:20:32.763Z,99.99
2018-07-14T01:22:25.517Z,99.99
2018-07-14T01:23:25.440Z,99.99
2018-07-14T01:25:18.203Z,99.99
2018-07-14T01:26:18.121Z,99.99
2018-07-14T01:28:11.015Z,99.99
2018-07-14T01:29:10.935Z,99.99
2018-07-14T01:31:03.797Z,99.99
2018-07-14T01:32:03.719Z,99.99
2018-07-14T01:33:56.605Z,99.99
2018-07-14T01:34:56.522Z,99.99
2018-07-14T01:36:49.343Z,99.99
2018-07-14T01:37:49.260Z,99.99
2018-07-14T01:39:42.036Z,99.99
2018-07-14T01:40:42.025Z,99.99
2018-07-14T01:42:34.714Z,99.99
2018-07-14T01:43:34.629Z,99.99
2018-07-14T01:45:27.900Z,99.99
2018-07-14T01:46:27.816Z,99.99
2018-07-14T01:48:20.759Z,99.99
2018-07-14T01:49:20.662Z,99.99
2018-07-14T01:51:13.539Z,99.99
2018-07-14T01:52:13.466Z,99.99
2018-07-14T01:54:06.354Z,99.99
2018-07-14T01:55:06.267Z,99.99
2018-07-14T01:56:59.038Z,99.99
2018-07-14T01:57:58.949Z,99.99
2018-07-14T01:59:51.826Z,99.99
2018-07-14T02:00:51.738Z,99.99
2018-07-14T02:02:44.499Z,99.99
2018-07-14T02:03:44.422Z,99.99
2018-07-14T02:05:37.189Z,99.99
2018-07-14T02:06:37.100Z,99.99
2018-07-14T02:08:29.869Z,99.99
2018-07-14T02:09:29.785Z,99.99
2018-07-14T02:11:22.537Z,99.99
2018-07-14T02:12:22.469Z,99.99
2018-07-14T02:14:15.855Z,99.99
2018-07-14T02:15:15.769Z,99.99
2018-07-14T02:17:08.632Z,99.99
2018-07-14T02:18:08.564Z,99.99
2018-07-14T02:20:01.456Z,99.99
2018-07-14T02:21:01.377Z,99.99
2018-07-14T02:22:54.275Z,99.99
2018-07-14T02:23:54.201Z,99.99
2018-07-14T02:25:46.970Z,99.99
2018-07-14T02:26:46.878Z,99.99
2018-07-14T02:28:39.660Z,99.99
2018-07-14T02:29:39.578Z,99.99
2018-07-14T02:31:32.342Z,99.99
2018-07-14T02:32:32.271Z,99.99
2018-07-14T02:34:25.033Z,99.99
2018-07-14T02:35:24.948Z,99.99
2018-07-14T02:37:17.772Z,99.99
2018-07-14T02:38:17.696Z,99.99
2018-07-14T02:40:10.573Z,99.99
2018-07-14T02:41:10.493Z,99.99
2018-07-14T02:43:03.354Z,99.99
2018-07-14T02:44:03.274Z,99.99
2018-07-14T02:45:57.129Z,99.99
2018-07-14T02:46:56.078Z,99.99
2018-07-14T02:48:49.063Z,99.99
2018-07-14T02:49:48.956Z,99.99
2018-07-14T02:51:41.726Z,99.99
2018-07-14T02:52:41.633Z,99.99
2018-07-14T02:54:34.612Z,99.99
2018-07-14T02:55:34.520Z,99.99
2018-07-14T02:57:27.279Z,99.99
2018-07-14T02:58:27.202Z,99.99
2018-07-14T03:00:20.075Z,99.99
2018-07-14T03:01:19.989Z,99.99
2018-07-14T03:03:12.867Z,99.99
2018-07-14T03:04:12.790Z,99.99
2018-07-14T03:06:05.666Z,99.99
2018-07-14T03:07:05.585Z,99.99
2018-07-14T03:08:58.354Z,99.99
2018-07-14T03:09:58.267Z,99.99
2018-07-14T03:11:51.147Z,99.99
2018-07-14T03:12:51.070Z,99.99
2018-07-14T03:14:43.828Z,99.99
2018-07-14T03:15:43.743Z,99.99
2018-07-14T03:17:36.501Z,99.99
2018-07-14T03:18:36.429Z,99.99
2018-07-14T03:20:29.193Z,99.99
2018-07-14T03:21:29.112Z,99.99
2018-07-14T03:23:21.866Z,99.99
2018-07-14T03:24:21.791Z,99.99
2018-07-14T03:26:14.669Z,99.99
2018-07-14T03:27:14.586Z,99.99
2018-07-14T03:29:07.471Z,99.99
2018-07-14T03:30:07.390Z,99.99
2018-07-14T03:32:00.257Z,99.99
2018-07-14T03:33:00.178Z,99.99
2018-07-14T03:34:52.943Z,99.99
2018-07-14T03:35:52.860Z,99.99
2018-07-14T03:37:45.841Z,99.99
2018-07-14T03:38:45.760Z,99.99
2018-07-14T03:40:38.526Z,99.99
2018-07-14T03:41:38.444Z,99.99
2018-07-14T03:43:31.203Z,99.99
2018-07-14T03:44:31.128Z,99.99
2018-07-14T03:46:23.905Z,99.99
2018-07-14T03:47:23.807Z,99.99
2018-07-14T03:49:16.681Z,99.99
2018-07-14T03:50:16.605Z,99.99
2018-07-14T03:52:09.374Z,99.99
2018-07-14T03:53:09.294Z,99.99
2018-07-14T03:55:02.234Z,99.99
2018-07-14T03:56:02.080Z,99.99
2018-07-14T03:57:55.141Z,99.99
2018-07-14T03:58:55.064Z,99.99
2018-07-14T04:00:47.838Z,99.99
2018-07-14T04:01:47.752Z,99.99
2018-07-14T04:03:40.507Z,99.99
2018-07-14T04:04:40.429Z,99.99
2018-07-14T04:06:33.227Z,99.99
2018-07-14T04:07:33.108Z,99.99
2018-07-14T04:09:25.867Z,99.99
2018-07-14T04:10:25.795Z,99.99
2018-07-14T04:12:18.559Z,99.99
2018-07-14T04:13:18.471Z,99.99
2018-07-14T04:15:11.350Z,99.99
2018-07-14T04:16:11.261Z,99.99
2018-07-14T04:18:04.140Z,99.99
2018-07-14T04:19:04.062Z,99.99
2018-07-14T04:20:56.833Z,99.99
2018-07-14T04:21:56.751Z,99.99
2018-07-14T04:23:49.616Z,99.99
2018-07-14T04:24:49.541Z,99.99
2018-07-14T04:26:42.302Z,99.99
2018-07-14T04:27:42.220Z,99.99
2018-07-14T04:29:34.977Z,99.99
2018-07-14T04:30:34.900Z,99.99
2018-07-14T04:32:27.670Z,99.99
2018-07-14T04:33:27.582Z,99.99
2018-07-14T04:35:20.358Z,99.99
2018-07-14T04:36:20.268Z,99.99
2018-07-14T04:38:13.102Z,99.99
2018-07-14T04:39:13.022Z,99.99
2018-07-14T04:41:05.905Z,99.99
2018-07-14T04:42:05.820Z,99.99
2018-07-14T04:43:58.585Z,99.99
2018-07-14T04:44:58.497Z,99.99
2018-07-14T04:46:51.375Z,99.99
2018-07-14T04:47:51.293Z,99.99
2018-07-14T04:49:44.053Z,99.99
2018-07-14T04:50:43.977Z,99.99
2018-07-14T04:52:36.760Z,99.99
2018-07-14T04:53:36.677Z,99.99
2018-07-14T04:55:29.439Z,99.99
2018-07-14T04:56:29.359Z,99.99
2018-07-14T04:58:22.117Z,99.99
2018-07-14T04:59:22.035Z,99.99
2018-07-14T05:01:14.909Z,99.99
2018-07-14T05:02:14.827Z,99.99
2018-07-14T05:04:07.696Z,99.99
2018-07-14T05:05:07.626Z,99.99
2018-07-14T05:07:00.596Z,99.99
2018-07-14T05:08:00.517Z,99.99
2018-07-14T05:09:53.263Z,99.99
2018-07-14T05:10:53.196Z,99.99
2018-07-14T05:12:46.935Z,99.99
2018-07-14T05:13:46.852Z,99.99
2018-07-14T05:15:39.622Z,99.99
2018-07-14T05:16:39.536Z,99.99
2018-07-14T05:18:32.291Z,99.99
2018-07-14T05:19:32.213Z,99.99
2018-07-14T05:21:24.994Z,99.99
2018-07-14T05:22:24.899Z,99.99
2018-07-14T05:24:17.780Z,99.99
2018-07-14T05:25:17.695Z,99.99
2018-07-14T05:27:10.591Z,99.99
2018-07-14T05:28:10.506Z,99.99
2018-07-14T05:30:03.376Z,99.99
2018-07-14T05:31:03.299Z,99.99
2018-07-14T05:32:56.063Z,99.99
2018-07-14T05:33:55.979Z,99.99
2018-07-14T05:35:48.867Z,99.99
2018-07-14T05:36:48.780Z,99.99
2018-07-14T05:38:41.550Z,99.99
2018-07-14T05:39:41.463Z,99.99
2018-07-14T05:41:34.232Z,99.99
2018-07-14T05:42:34.140Z,99.99
2018-07-14T05:44:26.907Z,99.97
2018-07-14T05:45:26.825Z,99.87
2018-07-14T05:47:19.706Z,99.49
2018-07-14T05:48:19.624Z,99.49
2018-07-14T05:50:12.491Z,99.30
2018-07-14T05:51:12.415Z,98.53
2018-07-14T05:53:05.322Z,98.53
2018-07-14T05:54:05.238Z,98.72
2018-07-14T05:55:57.998Z,99.58
2018-07-14T05:56:57.912Z,98.77
2018-07-14T05:58:50.796Z,98.86
2018-07-14T05:59:50.722Z,98.77
2018-07-14T06:01:43.487Z,98.48
2018-07-14T06:02:43.403Z,98.29
2018-07-14T06:04:36.158Z,98.39
2018-07-14T06:05:36.086Z,98.39
2018-07-14T06:07:28.862Z,98.19
2018-07-14T06:08:28.768Z,97.33
2018-07-14T06:10:21.524Z,97.91
2018-07-14T06:11:21.459Z,96.56
2018-07-14T06:13:14.327Z,95.75
2018-07-14T06:14:14.247Z,96.47
2018-07-14T06:16:07.114Z,96.37
2018-07-14T06:17:07.041Z,96.66
2018-07-14T06:18:59.911Z,96.08
2018-07-14T06:19:59.835Z,95.65
2018-07-14T06:21:52.606Z,95.17
2018-07-14T06:22:52.524Z,95.65
2018-07-14T06:24:45.387Z,95.36
2018-07-14T06:25:45.317Z,95.26
2018-07-14T06:27:38.083Z,94.30
2018-07-14T06:28:37.998Z,94.78
2018-07-14T06:30:30.770Z,94.06
2018-07-14T06:31:30.687Z,94.45
2018-07-14T06:33:23.453Z,95.40
2018-07-14T06:34:23.370Z,94.64
2018-07-14T06:36:16.249Z,94.54
2018-07-14T06:37:16.172Z,94.06
2018-07-14T06:39:09.039Z,94.83
2018-07-14T06:40:08.966Z,95.12
2018-07-14T06:42:01.950Z,93.33
2018-07-14T06:43:01.870Z,93.24
2018-07-14T06:44:54.737Z,93.05
2018-07-14T06:45:54.663Z,93.33
2018-07-14T06:47:47.429Z,93.05
2018-07-14T06:48:47.345Z,90.64
2018-07-14T06:50:40.114Z,91.51
2018-07-14T06:51:40.035Z,90.64
2018-07-14T06:53:32.815Z,91.31
2018-07-14T06:54:32.733Z,90.73
2018-07-14T06:56:25.513Z,91.41
2018-07-14T06:57:25.420Z,91.03
2018-07-14T06:59:18.287Z,89.58
2018-07-14T07:00:18.206Z,89.49
2018-07-14T07:02:11.088Z,89.05
2018-07-14T07:03:11.016Z,88.57
2018-07-14T07:05:03.774Z,87.32
2018-07-14T07:06:03.703Z,86.65
2018-07-14T07:07:56.656Z,86.65
2018-07-14T07:08:56.568Z,86.35
2018-07-14T07:10:49.329Z,86.55
2018-07-14T07:11:49.255Z,86.59
2018-07-14T07:13:42.077Z,85.14
2018-07-14T07:14:41.942Z,85.53
2018-07-14T07:16:34.708Z,86.88
2018-07-14T07:17:34.626Z,84.76
2018-07-14T07:19:27.394Z,84.28
2018-07-14T07:20:27.314Z,84.38
2018-07-14T07:22:20.096Z,86.59
2018-07-14T07:23:20.008Z,85.14
2018-07-14T07:25:12.882Z,84.47
2018-07-14T07:26:12.807Z,84.18
2018-07-14T07:28:05.581Z,84.86
2018-07-14T07:29:05.496Z,85.24
2018-07-14T07:30:58.262Z,85.34
2018-07-14T07:31:58.185Z,83.89
2018-07-14T07:33:51.072Z,83.45
2018-07-14T07:34:50.989Z,83.41
2018-07-14T07:36:43.962Z,83.16
2018-07-14T07:37:43.867Z,82.87
2018-07-14T07:39:36.635Z,83.64
2018-07-14T07:40:36.562Z,83.16
2018-07-14T07:42:29.504Z,85.42
2018-07-14T07:43:29.249Z,82.53
2018-07-14T07:45:22.010Z,82.24
2018-07-14T07:46:21.934Z,83.78
2018-07-14T07:48:14.834Z,83.50
2018-07-14T07:49:14.748Z,81.85
2018-07-14T07:51:07.628Z,80.89
2018-07-14T07:52:07.555Z,80.69
2018-07-14T07:54:00.321Z,81.99
2018-07-14T07:55:00.244Z,80.54
2018-07-14T07:56:53.144Z,80.45
2018-07-14T07:57:53.063Z,80.06
2018-07-14T07:59:45.936Z,78.23
2018-07-14T08:00:45.870Z,78.85
2018-07-14T08:02:38.667Z,75.95
2018-07-14T08:03:38.587Z,76.05
2018-07-14T08:05:31.354Z,76.05
2018-07-14T08:06:31.274Z,76.15
2018-07-14T08:08:24.046Z,76.43
2018-07-14T08:09:23.967Z,75.37
2018-07-14T08:11:16.845Z,73.63
2018-07-14T08:12:16.769Z,74.60
2018-07-14T08:14:09.654Z,74.99
2018-07-14T08:15:09.575Z,75.67
2018-07-14T08:17:02.434Z,75.27
2018-07-14T08:18:02.283Z,75.37
2018-07-14T08:19:55.139Z,76.28
2018-07-14T08:20:55.074Z,76.18
2018-07-14T08:22:47.906Z,73.67
2018-07-14T08:23:47.762Z,73.48
2018-07-14T08:25:40.527Z,74.35
2018-07-14T08:26:40.452Z,75.31
2018-07-14T08:28:33.248Z,72.90
2018-07-14T08:29:33.143Z,72.90
2018-07-14T08:31:25.918Z,72.94
2018-07-14T08:32:25.901Z,73.80
2018-07-14T08:34:18.765Z,71.68
2018-07-14T08:35:18.680Z,70.62
2018-07-14T08:37:11.466Z,72.06
2018-07-14T08:38:11.449Z,72.45
2018-07-14T08:40:04.266Z,71.48
2018-07-14T08:41:04.195Z,70.72
2018-07-14T08:42:56.960Z,70.72
2018-07-14T08:43:56.886Z,69.68
2018-07-14T08:45:49.773Z,70.36
2018-07-14T08:46:49.690Z,70.46
2018-07-14T08:48:42.465Z,71.04
2018-07-14T08:49:42.382Z,70.50
2018-07-14T08:51:35.211Z,69.43
2018-07-14T08:52:35.075Z,68.27
2018-07-14T08:54:28.359Z,65.56
2018-07-14T08:55:28.307Z,67.11
2018-07-14T08:57:21.064Z,68.21
2018-07-14T08:58:20.978Z,66.56
2018-07-14T09:00:13.862Z,64.43
2018-07-14T09:01:13.786Z,64.34
2018-07-14T09:03:06.640Z,64.95
2018-07-14T09:04:06.481Z,62.53
2018-07-14T09:05:59.376Z,61.76
2018-07-14T09:06:59.301Z,61.46
2018-07-14T09:08:52.070Z,62.04
2018-07-14T09:09:51.994Z,60.91
2018-07-14T09:11:44.877Z,61.46
2018-07-14T09:12:44.806Z,61.88
2018-07-14T09:14:37.580Z,61.21
2018-07-14T09:15:37.497Z,62.37
2018-07-14T09:17:30.293Z,61.82
2018-07-14T09:18:30.194Z,61.36
2018-07-14T09:20:22.968Z,59.42
2018-07-14T09:21:22.908Z,60.10
2018-07-14T09:23:15.794Z,58.00
2018-07-14T09:24:15.712Z,57.09
2018-07-14T09:26:08.527Z,57.54
2018-07-14T09:27:08.430Z,55.77
2018-07-14T09:29:01.272Z,56.40
2018-07-14T09:30:01.149Z,53.78
2018-07-14T09:31:54.032Z,55.24
2018-07-14T09:32:53.971Z,53.91
2018-07-14T09:34:46.762Z,52.86
2018-07-14T09:35:46.695Z,52.31
2018-07-14T09:37:39.480Z,51.45
2018-07-14T09:38:39.419Z,50.34
2018-07-14T09:40:32.224Z,47.66
2018-07-14T09:41:32.136Z,47.78
2018-07-14T09:43:24.929Z,47.58
2018-07-14T09:44:24.866Z,46.88
2018-07-14T09:46:17.762Z,46.02
2018-07-14T09:47:17.700Z,46.02
2018-07-14T09:49:10.606Z,45.25
2018-07-14T09:50:10.538Z,45.36
2018-07-14T09:52:03.437Z,44.95
2018-07-14T09:53:03.284Z,44.97
2018-07-14T09:54:56.195Z,43.99
2018-07-14T09:55:56.125Z,44.19
2018-07-14T09:57:48.915Z,43.61
2018-07-14T09:58:48.857Z,43.80
2018-07-14T10:00:41.657Z,44.31
2018-07-14T10:01:41.595Z,43.55
2018-07-14T10:03:34.377Z,42.09
2018-07-14T10:04:34.313Z,42.79
2018-07-14T10:06:27.107Z,42.32
2018-07-14T10:07:27.044Z,41.13
2018-07-14T10:09:19.967Z,41.89
2018-07-14T10:10:19.902Z,42.40
2018-07-14T10:12:12.687Z,40.60
2018-07-14T10:13:12.643Z,39.86
2018-07-14T10:15:05.468Z,37.35
2018-07-14T10:16:05.369Z,37.84
2018-07-14T10:17:58.297Z,36.94
2018-07-14T10:18:58.246Z,37.96
2018-07-14T10:20:51.544Z,40.45
2018-07-14T10:21:51.479Z,40.01
2018-07-14T10:23:44.275Z,37.35
2018-07-14T10:24:44.218Z,36.58
2018-07-14T10:26:37.032Z,35.80
2018-07-14T10:27:36.976Z,36.35
2018-07-14T10:29:29.772Z,37.63
2018-07-14T10:30:29.717Z,37.05
2018-07-14T10:32:22.523Z,37.35
2018-07-14T10:33:22.439Z,37.57
2018-07-14T10:35:15.364Z,36.30
2018-07-14T10:36:15.313Z,36.30
2018-07-14T10:38:08.155Z,36.87
2018-07-14T10:39:08.095Z,37.12
2018-07-14T10:41:01.051Z,36.93
2018-07-14T10:42:01.025Z,36.40
2018-07-14T10:43:53.795Z,36.38
2018-07-14T10:44:53.727Z,36.79
2018-07-14T10:46:46.730Z,37.18
2018-07-14T10:47:46.583Z,36.71
2018-07-14T10:49:39.385Z,36.32
2018-07-14T10:50:39.322Z,36.41
2018-07-14T10:52:32.110Z,37.16
2018-07-14T10:53:32.054Z,36.10
2018-07-14T10:55:24.851Z,37.54
2018-07-14T10:56:24.781Z,39.36
2018-07-14T10:58:17.773Z,41.30
2018-07-14T10:59:17.653Z,42.86
2018-07-14T11:01:10.450Z,41.07
2018-07-14T11:02:10.377Z,40.92
2018-07-14T11:04:03.336Z,40.74
2018-07-14T11:05:03.237Z,39.36
2018-07-14T11:06:56.062Z,40.60
2018-07-14T11:07:55.954Z,40.33
2018-07-14T11:09:48.951Z,39.65
2018-07-14T11:10:48.875Z,39.82
2018-07-14T11:12:41.658Z,39.72
2018-07-14T11:13:41.594Z,40.80
2018-07-14T11:15:34.378Z,39.92
2018-07-14T11:16:34.302Z,39.72
2018-07-14T11:18:27.092Z,41.35
2018-07-14T11:19:27.018Z,41.61
2018-07-14T11:21:19.923Z,42.40
2018-07-14T11:22:19.848Z,42.40
2018-07-14T11:24:12.786Z,42.44
2018-07-14T11:25:12.703Z,39.84
2018-07-14T11:27:05.630Z,38.61
2018-07-14T11:28:05.556Z,37.73
2018-07-14T11:29:58.476Z,36.38
2018-07-14T11:30:58.407Z,36.79
2018-07-14T11:32:51.195Z,36.96
2018-07-14T11:33:51.138Z,37.63
2018-07-14T11:35:44.427Z,37.14
2018-07-14T11:36:44.357Z,36.85
2018-07-14T11:38:37.152Z,38.87
2018-07-14T11:39:37.086Z,40.19
2018-07-14T11:41:29.931Z,41.52
2018-07-14T11:42:29.843Z,42.20
2018-07-14T11:44:22.610Z,40.99
2018-07-14T11:45:22.540Z,40.80
2018-07-14T11:47:15.467Z,42.35
2018-07-14T11:48:15.409Z,42.55
2018-07-14T11:50:08.326Z,42.65
2018-07-14T11:51:08.262Z,42.55
2018-07-14T11:53:01.049Z,41.30
2018-07-14T11:54:00.974Z,42.96
2018-07-14T11:55:53.909Z,43.64
2018-07-14T11:56:53.834Z,43.81
2018-07-14T11:58:46.614Z,44.49
2018-07-14T11:59:46.553Z,44.40
2018-07-14T12:01:39.326Z,44.01
2018-07-14T12:02:39.264Z,42.57
2018-07-14T12:04:32.048Z,41.96
2018-07-14T12:05:31.971Z,42.35
2018-07-14T12:07:24.881Z,42.35
2018-07-14T12:08:24.703Z,43.43
2018-07-14T12:10:17.673Z,43.05
2018-07-14T12:11:17.597Z,42.28
2018-07-14T12:13:10.377Z,42.98
2018-07-14T12:14:10.343Z,42.30
2018-07-14T12:16:03.307Z,41.25
2018-07-14T12:17:03.224Z,41.32
2018-07-14T12:18:55.987Z,40.95
2018-07-14T12:19:55.906Z,40.86
2018-07-14T12:21:48.738Z,39.78
2018-07-14T12:22:48.624Z,40.66
2018-07-14T12:24:41.415Z,42.38
2018-07-14T12:25:41.347Z,42.55
2018-07-14T12:27:34.190Z,42.28
2018-07-14T12:28:34.050Z,42.08
2018-07-14T12:30:26.853Z,41.01
2018-07-14T12:31:26.765Z,40.81
2018-07-14T12:33:19.549Z,42.18
2018-07-14T12:34:19.480Z,42.57
2018-07-14T12:36:12.376Z,42.28
2018-07-14T12:37:12.299Z,42.16
2018-07-14T12:39:05.095Z,42.94
2018-07-14T12:40:05.017Z,42.25
2018-07-14T12:41:57.997Z,43.52
2018-07-14T12:42:57.911Z,43.81
2018-07-14T12:44:51.178Z,42.35
2018-07-14T12:45:51.125Z,43.04
2018-07-14T12:47:44.011Z,42.84
2018-07-14T12:48:43.954Z,42.45
2018-07-14T12:50:36.797Z,42.16
2018-07-14T12:51:36.664Z,42.55
2018-07-14T12:53:29.446Z,42.84
2018-07-14T12:54:29.364Z,44.01
2018-07-14T12:56:22.264Z,43.64
2018-07-14T12:57:22.218Z,40.72
2018-07-14T12:59:15.082Z,39.16
2018-07-14T13:00:15.118Z,38.59
2018-07-14T13:02:07.800Z,37.93
2018-07-14T13:03:07.725Z,37.75
2018-07-14T13:05:00.657Z,37.63
2018-07-14T13:06:00.576Z,39.49
2018-07-14T13:07:53.374Z,39.88
2018-07-14T13:08:53.310Z,40.93
2018-07-14T13:10:46.778Z,41.13
2018-07-14T13:11:46.715Z,42.20
2018-07-14T13:13:39.485Z,42.28
2018-07-14T13:14:39.416Z,41.60
2018-07-14T13:16:32.203Z,41.81
2018-07-14T13:17:32.127Z,42.08
2018-07-14T13:19:24.927Z,40.91
2018-07-14T13:20:24.860Z,40.62
2018-07-14T13:22:17.672Z,41.11
2018-07-14T13:23:17.591Z,41.03
2018-07-14T13:25:10.573Z,42.08
2018-07-14T13:26:10.477Z,42.38
2018-07-14T13:28:03.256Z,42.40
2018-07-14T13:29:03.186Z,40.83
2018-07-14T13:30:56.084Z,41.13
2018-07-14T13:31:56.012Z,39.57
2018-07-14T13:33:48.790Z,39.28
2018-07-14T13:34:48.730Z,39.57
2018-07-14T13:36:41.528Z,39.67
2018-07-14T13:37:41.444Z,41.13
2018-07-14T13:39:34.323Z,41.22
2018-07-14T13:40:34.192Z,40.93
2018-07-14T13:42:27.491Z,39.47
2018-07-14T13:43:27.429Z,39.29
2018-07-14T13:45:20.358Z,39.78
2018-07-14T13:46:20.291Z,40.00
2018-07-14T13:48:13.094Z,39.88
2018-07-14T13:49:12.988Z,40.56
2018-07-14T13:51:05.915Z,40.37
2018-07-14T13:52:05.803Z,39.49
2018-07-14T13:53:58.587Z,40.80
2018-07-14T13:54:58.517Z,40.41
2018-07-14T13:56:51.415Z,37.11
2018-07-14T13:57:51.349Z,38.35
2018-07-14T13:59:44.142Z,37.34
2018-07-14T14:00:44.062Z,35.50
2018-07-14T14:02:36.839Z,34.83
2018-07-14T14:03:36.767Z,33.38
2018-07-14T14:05:29.575Z,31.87
2018-07-14T14:06:29.474Z,31.79
2018-07-14T14:08:22.331Z,30.36
2018-07-14T14:09:22.267Z,29.38
2018-07-14T14:11:15.172Z,30.66
2018-07-14T14:12:15.090Z,29.39
2018-07-14T14:14:07.889Z,28.83
2018-07-14T14:15:07.816Z,28.72
2018-07-14T14:17:00.792Z,29.91
2018-07-14T14:18:00.650Z,30.80
2018-07-14T14:19:53.515Z,31.06
2018-07-14T14:20:53.380Z,31.17
2018-07-14T14:22:46.282Z,30.81
2018-07-14T14:23:46.213Z,30.27
2018-07-14T14:25:39.077Z,29.19
2018-07-14T14:26:38.983Z,29.80
2018-07-14T14:28:31.771Z,29.34
2018-07-14T14:29:31.708Z,27.39
2018-07-14T14:31:24.551Z,27.41
2018-07-14T14:32:24.448Z,27.23
2018-07-14T14:34:17.244Z,25.46
2018-07-14T14:35:17.176Z,25.38
2018-07-14T14:37:10.046Z,25.99
2018-07-14T14:38:09.977Z,27.64
2018-07-14T14:40:02.766Z,29.79
2018-07-14T14:41:02.712Z,28.97
2018-07-14T14:42:55.661Z,31.74
2018-07-14T14:43:55.592Z,31.86
2018-07-14T14:45:48.385Z,31.29
2018-07-14T14:46:48.314Z,30.63
2018-07-14T14:48:41.127Z,30.05
2018-07-14T14:49:41.071Z,29.49
2018-07-14T14:51:33.871Z,29.21
2018-07-14T14:52:33.794Z,29.77
2018-07-14T14:54:26.599Z,30.30
2018-07-14T14:55:26.524Z,31.68
2018-07-14T14:57:19.455Z,32.01
2018-07-14T14:58:19.444Z,31.20
2018-07-14T15:00:12.188Z,30.66
2018-07-14T15:01:12.130Z,30.07
2018-07-14T15:03:04.948Z,28.30
2018-07-14T15:04:04.841Z,29.11
2018-07-14T15:05:57.765Z,28.34
2018-07-14T15:06:57.692Z,27.37
2018-07-14T15:08:50.487Z,26.23
2018-07-14T15:09:50.426Z,25.74
2018-07-14T15:11:43.767Z,25.57
2018-07-14T15:12:43.704Z,24.18
2018-07-14T15:14:36.484Z,25.57
2018-07-14T15:15:36.424Z,25.45
2018-07-14T15:17:29.230Z,25.84
2018-07-14T15:18:29.159Z,25.95
2018-07-14T15:20:21.975Z,26.99
2018-07-14T15:21:21.896Z,26.93
2018-07-14T15:23:14.701Z,25.54
2018-07-14T15:24:14.626Z,25.61
2018-07-14T15:26:07.565Z,26.09
2018-07-14T15:27:07.486Z,26.95
2018-07-14T15:29:00.275Z,26.57
2018-07-14T15:30:00.215Z,26.73
2018-07-14T15:31:53.164Z,29.25
2018-07-14T15:32:53.258Z,28.95
2018-07-14T15:34:45.894Z,27.42
2018-07-14T15:35:45.830Z,26.93
2018-07-14T15:37:38.638Z,26.29
2018-07-14T15:38:38.561Z,25.89
2018-07-14T15:40:31.366Z,26.93
2018-07-14T15:41:31.354Z,27.14
2018-07-14T15:43:24.115Z,28.31
2018-07-14T15:44:24.048Z,27.94
2018-07-14T15:46:16.965Z,26.29
2018-07-14T15:47:16.937Z,25.92
2018-07-14T15:49:09.705Z,25.40
2018-07-14T15:50:09.622Z,25.78
2018-07-14T15:52:02.498Z,25.52
2018-07-14T15:53:02.420Z,25.43
2018-07-14T15:54:55.214Z,25.65
2018-07-14T15:55:55.150Z,24.87
2018-07-14T15:57:48.364Z,24.19
2018-07-14T15:58:48.261Z,24.86
2018-07-14T16:00:41.052Z,27.44
2018-07-14T16:01:41.011Z,28.50
2018-07-14T16:03:33.818Z,29.31
2018-07-14T16:04:33.744Z,30.88
2018-07-14T16:06:26.552Z,29.21
2018-07-14T16:07:26.477Z,29.14
2018-07-14T16:09:19.305Z,28.68
2018-07-14T16:10:19.211Z,28.29
2018-07-14T16:12:12.122Z,27.81
2018-07-14T16:13:12.051Z,27.94
2018-07-14T16:15:04.869Z,26.57
2018-07-14T16:16:04.796Z,26.57
2018-07-14T16:17:57.745Z,26.79
2018-07-14T16:18:57.675Z,26.02
2018-07-14T16:20:50.851Z,25.77
2018-07-14T16:21:50.797Z,26.37
2018-07-14T16:23:43.598Z,27.34
2018-07-14T16:24:43.524Z,26.78
2018-07-14T16:26:36.397Z,25.62
2018-07-14T16:27:36.253Z,25.32
2018-07-14T16:29:29.065Z,26.02
2018-07-14T16:30:28.992Z,25.32
2018-07-14T16:32:21.913Z,24.74
2018-07-14T16:33:21.833Z,25.03
2018-07-14T16:35:14.744Z,25.61
2018-07-14T16:36:14.620Z,24.63
2018-07-14T16:38:07.557Z,25.39
2018-07-14T16:39:07.495Z,25.57
2018-07-14T16:41:00.273Z,28.09
2018-07-14T16:42:00.200Z,28.13
2018-07-14T16:43:53.125Z,30.44
2018-07-14T16:44:53.113Z,31.99
2018-07-14T16:46:45.839Z,31.60
2018-07-14T16:47:45.778Z,31.77
2018-07-14T16:49:38.569Z,32.75
2018-07-14T16:50:38.497Z,31.87
2018-07-14T16:52:31.299Z,33.12
2018-07-14T16:53:31.226Z,33.22
2018-07-14T16:55:24.036Z,33.51
2018-07-14T16:56:23.969Z,33.01
2018-07-14T16:58:16.789Z,32.52
2018-07-14T16:59:16.690Z,32.99
2018-07-14T17:01:09.600Z,33.18
2018-07-14T17:02:09.529Z,33.17
2018-07-14T17:04:02.321Z,33.38
2018-07-14T17:05:02.241Z,32.99
2018-07-14T17:06:55.079Z,32.78
2018-07-14T17:07:55.007Z,34.05
2018-07-14T17:09:47.949Z,34.44
2018-07-14T17:10:47.844Z,33.56
2018-07-14T17:12:40.634Z,33.85
2018-07-14T17:13:40.557Z,33.46
2018-07-14T17:15:33.334Z,33.46
2018-07-14T17:16:33.264Z,34.05
2018-07-14T17:18:26.062Z,33.95
2018-07-14T17:19:25.971Z,33.46
2018-07-14T17:21:18.780Z,34.03
2018-07-14T17:22:18.712Z,33.54
2018-07-14T17:24:11.498Z,34.03
2018-07-14T17:25:11.416Z,34.32
2018-07-14T17:27:04.310Z,34.32
2018-07-14T17:28:04.229Z,35.38
2018-07-14T17:29:57.026Z,34.69
2018-07-14T17:30:56.941Z,34.40
2018-07-14T17:32:49.755Z,34.59
2018-07-14T17:33:49.657Z,33.43
2018-07-14T17:35:43.050Z,33.92
2018-07-14T17:36:42.918Z,33.62
2018-07-14T17:38:35.767Z,34.31
2018-07-14T17:39:35.677Z,34.50
2018-07-14T17:41:28.531Z,34.89
2018-07-14T17:42:28.419Z,34.78
2018-07-14T17:44:21.391Z,34.29
2018-07-14T17:45:21.318Z,34.39
2018-07-14T17:47:14.092Z,34.19
2018-07-14T17:48:14.022Z,34.39
2018-07-14T17:50:06.933Z,33.41
2018-07-14T17:51:06.838Z,33.39
2018-07-14T17:52:59.616Z,34.37
2018-07-14T17:53:59.544Z,34.56
2018-07-14T17:55:52.468Z,35.15
2018-07-14T17:56:52.362Z,35.34
2018-07-14T17:58:45.232Z,35.63
2018-07-14T17:59:45.116Z,35.42
2018-07-14T18:01:37.871Z,35.33
2018-07-14T18:02:37.805Z,35.33
2018-07-14T18:04:30.602Z,35.61
2018-07-14T18:05:30.533Z,35.23
2018-07-14T18:07:23.288Z,35.42
2018-07-14T18:08:23.217Z,35.52
2018-07-14T18:10:16.121Z,35.23
2018-07-14T18:11:16.069Z,35.91
2018-07-14T18:13:08.837Z,35.71
2018-07-14T18:14:08.749Z,36.30
2018-07-14T18:16:01.576Z,35.71
2018-07-14T18:17:01.455Z,35.33
2018-07-14T18:18:54.356Z,36.40
2018-07-14T18:19:54.271Z,35.61
2018-07-14T18:21:47.039Z,35.80
2018-07-14T18:22:46.972Z,36.38
2018-07-14T18:24:39.788Z,36.28
2018-07-14T18:25:39.742Z,36.49
2018-07-14T18:27:32.480Z,35.80
2018-07-14T18:28:32.412Z,35.80
2018-07-14T18:30:25.192Z,35.89
2018-07-14T18:31:25.137Z,35.80
2018-07-14T18:33:17.902Z,35.99